Estación Meteorológica Peña el Pijo (Robertgarden) [ 09/24/17 17:52:52 CEST ]

Fecha Hora Presion(HPa) Temp (°C) Humedad % Rocio (°C) Viento ( m/s) Direccion Lluvia 1Hora(mm) Lluvia 24H(mm) LLuvia Total(mm)
2017-Aug-31 01:01:33 1010.300 15.1 77 11.1         1452.47
2017-Aug-31 02:01:38 1010.600 14.3 79 10.7         1452.47
2017-Aug-31 03:03:50 1010.100 14.9 81 11.7         1452.47
2017-Aug-31 04:01:49 1009.600 14.9 81 11.7         1452.47
2017-Aug-31 05:01:40 1009.900 13.9 82 10.9         1452.47
2017-Aug-31 06:01:46 1010.000 13.3 83 10.4         1452.47
2017-Aug-31 07:01:53 1010.400 12.6 84 9.9         1452.47
2017-Aug-31 08:02:02 1010.400 13.1 84 10.4         1452.47
2017-Aug-31 09:01:42 1011.000 14.5 84 11.8         1452.47
2017-Aug-31 10:01:43 1011.200 19.0 79 15.3         1452.47
2017-Aug-31 11:01:56 1011.200 21.9 63 14.5         1452.47
2017-Aug-31 12:01:52 1011.200 25.4 49 13.9         1452.47
2017-Aug-31 13:01:48 1010.900 28.8 40 13.9         1452.47
2017-Aug-31 14:01:50 1010.400 29.8 39 14.4         1452.47
2017-Aug-31 15:02:03 1010.100 26.7 42 12.7         1452.47
2017-Aug-31 16:01:48 1010.000 21.4 59 13.1         1452.47
2017-Aug-31 17:01:46 1010.300 18.9 76 14.6     3.62 3.62 1456.09
2017-Aug-31 18:01:49 1010.200 18.3 81 15.0     1.55 5.18 1457.65
2017-Aug-31 19:01:58 1010.000 17.9 82 14.8       5.18 1457.65
2017-Aug-31 20:01:54 1010.500 17.9 83 15.0       5.18 1457.65
2017-Aug-31 21:01:50 1010.800 17.4 84 14.7       5.18 1457.65
2017-Aug-31 22:01:54 1011.400 15.9 85 13.4       5.18 1457.65
2017-Aug-31 23:01:48 1011.900 14.9 87 12.8       5.18 1457.65

Temperatura Máxima:29°    Temperatura Mínima:12°
Presión Máxima:1011.900 Hpa    Presión Mínima:1009.600 Hpa


Volver